createdAt,value
2023-05-10T00:00:04.391Z,51.82
2023-05-10T00:00:55.485Z,51.71
2023-05-10T00:01:42.421Z,51.53
2023-05-10T00:02:16.499Z,51.54
2023-05-10T00:03:04.449Z,51.53
2023-05-10T00:03:38.724Z,51.67
2023-05-10T00:04:25.376Z,51.60
2023-05-10T00:04:59.486Z,51.55
2023-05-10T00:05:40.383Z,51.62
2023-05-10T00:06:21.237Z,51.77
2023-05-10T00:07:02.350Z,51.76
2023-05-10T00:07:45.690Z,51.96
2023-05-10T00:08:25.361Z,51.54
2023-05-10T00:09:05.482Z,51.80
2023-05-10T00:09:45.350Z,51.56
2023-05-10T00:10:25.426Z,51.81
2023-05-10T00:11:05.379Z,51.80
2023-05-10T00:11:45.559Z,51.69
2023-05-10T00:12:26.359Z,51.90
2023-05-10T00:13:06.498Z,52.05
2023-05-10T00:13:47.364Z,51.64
2023-05-10T00:14:27.440Z,52.04
2023-05-10T00:15:07.359Z,51.70
2023-05-10T00:15:47.431Z,51.58
2023-05-10T00:16:27.442Z,51.50
2023-05-10T00:17:07.469Z,51.62
2023-05-10T00:17:48.369Z,51.70
2023-05-10T00:18:28.467Z,51.88
2023-05-10T00:19:08.353Z,51.48
2023-05-10T00:19:49.123Z,51.49
2023-05-10T00:20:29.349Z,51.65
2023-05-10T00:21:09.441Z,51.81
2023-05-10T00:21:49.359Z,52.14
2023-05-10T00:22:23.133Z,52.05
2023-05-10T00:23:10.341Z,52.15
2023-05-10T00:23:44.059Z,52.30
2023-05-10T00:24:31.351Z,52.32
2023-05-10T00:25:06.264Z,52.14
2023-05-10T00:25:53.374Z,51.98
2023-05-10T00:26:27.218Z,52.02
2023-05-10T00:27:14.380Z,51.95
2023-05-10T00:27:48.550Z,51.78
2023-05-10T00:28:35.422Z,51.70
2023-05-10T00:29:09.167Z,51.64
2023-05-10T00:29:56.346Z,51.56
2023-05-10T00:30:30.228Z,51.79
2023-05-10T00:31:17.359Z,51.93
2023-05-10T00:31:51.264Z,51.83
2023-05-10T00:32:38.429Z,51.30
2023-05-10T00:33:12.544Z,51.39
2023-05-10T00:33:59.344Z,51.67
2023-05-10T00:34:33.243Z,52.20
2023-05-10T00:35:21.328Z,51.89
2023-05-10T00:35:55.067Z,51.93
2023-05-10T00:36:42.350Z,51.97
2023-05-10T00:37:16.094Z,52.05
2023-05-10T00:38:03.367Z,51.83
2023-05-10T00:38:37.100Z,51.48
2023-05-10T00:39:24.336Z,51.67
2023-05-10T00:40:20.362Z,51.45
2023-05-10T00:41:14.368Z,51.83
2023-05-10T00:42:08.330Z,51.97
2023-05-10T00:43:02.319Z,51.96
2023-05-10T00:43:43.338Z,52.08
2023-05-10T00:44:23.449Z,52.35
2023-05-10T00:45:03.358Z,52.24
2023-05-10T00:45:43.535Z,52.60
2023-05-10T00:46:24.350Z,52.55
2023-05-10T00:47:05.462Z,52.31
2023-05-10T00:47:46.402Z,52.08
2023-05-10T00:48:27.344Z,52.45
2023-05-10T00:49:01.424Z,52.68
2023-05-10T00:49:49.307Z,52.49
2023-05-10T00:50:23.436Z,52.33
2023-05-10T00:51:10.336Z,52.52
2023-05-10T00:51:45.505Z,52.45
2023-05-10T00:52:33.350Z,52.38
2023-05-10T00:53:07.405Z,52.55
2023-05-10T00:53:48.348Z,52.47
2023-05-10T00:54:28.429Z,52.77
2023-05-10T00:55:10.317Z,52.48
2023-05-10T00:55:50.426Z,52.80
2023-05-10T00:56:32.303Z,52.42
2023-05-10T00:57:12.415Z,52.59
2023-05-10T00:57:53.336Z,52.37
2023-05-10T00:58:33.400Z,52.51
2023-05-10T00:59:14.392Z,52.48
2023-05-10T00:59:54.428Z,52.48
2023-05-10T01:00:35.318Z,52.46
2023-05-10T01:01:16.423Z,52.20
2023-05-10T01:01:57.319Z,52.43
2023-05-10T01:02:37.471Z,52.13
2023-05-10T01:03:19.492Z,52.28
2023-05-10T01:04:01.747Z,52.63
2023-05-10T01:04:43.357Z,52.59
2023-05-10T01:05:23.565Z,52.41
2023-05-10T01:06:03.320Z,52.72
2023-05-10T01:06:43.403Z,52.68
2023-05-10T01:07:24.354Z,52.69
2023-05-10T01:08:04.402Z,52.67
2023-05-10T01:08:45.511Z,52.84
2023-05-10T01:09:27.364Z,52.89
2023-05-10T01:10:07.346Z,53.16
2023-05-10T01:11:01.356Z,53.02
2023-05-10T01:11:55.358Z,52.76
2023-05-10T01:12:54.352Z,52.62
2023-05-10T01:13:51.310Z,52.70
2023-05-10T01:14:45.336Z,52.51
2023-05-10T01:15:32.324Z,52.91
2023-05-10T01:16:07.418Z,52.91
2023-05-10T01:16:56.316Z,53.15
2023-05-10T01:17:30.475Z,52.93
2023-05-10T01:18:17.296Z,53.07
2023-05-10T01:18:52.432Z,52.88
2023-05-10T01:19:42.303Z,52.86
2023-05-10T01:20:17.630Z,52.61
2023-05-10T01:21:13.320Z,53.30
2023-05-10T01:22:09.386Z,53.64
2023-05-10T01:23:19.317Z,52.95
2023-05-10T01:24:20.390Z,53.23
2023-05-10T01:25:25.282Z,53.25
2023-05-10T01:26:28.319Z,53.35
2023-05-10T01:27:55.304Z,53.54
2023-05-10T01:29:26.316Z,53.50
2023-05-10T01:30:42.303Z,53.12
2023-05-10T01:31:54.325Z,53.25
2023-05-10T01:33:34.293Z,53.33
2023-05-10T01:34:34.283Z,53.12
2023-05-10T01:35:41.290Z,53.45
2023-05-10T01:36:50.288Z,54.11
2023-05-10T01:37:41.317Z,54.18
2023-05-10T01:38:55.526Z,53.81
2023-05-10T01:39:55.291Z,54.02
2023-05-10T01:41:24.385Z,54.06
2023-05-10T01:42:24.299Z,53.75
2023-05-10T01:43:34.321Z,54.16
2023-05-10T01:44:50.639Z,54.19
2023-05-10T01:45:55.272Z,53.92
2023-05-10T01:46:46.750Z,53.90
2023-05-10T01:47:43.338Z,54.06
2023-05-10T01:48:18.351Z,54.06
2023-05-10T01:49:04.311Z,53.87
2023-05-10T01:49:57.367Z,54.04
2023-05-10T01:50:38.299Z,54.46
2023-05-10T01:51:18.441Z,54.22
2023-05-10T01:52:04.269Z,54.25
2023-05-10T01:52:50.351Z,54.39
2023-05-10T01:53:31.263Z,54.41
2023-05-10T01:54:19.282Z,54.46
2023-05-10T01:55:31.276Z,54.49
2023-05-10T01:56:26.295Z,53.98
2023-05-10T01:57:21.277Z,54.25
2023-05-10T01:58:22.284Z,54.19
2023-05-10T01:59:22.328Z,54.63
2023-05-10T02:00:18.465Z,54.57
2023-05-10T02:01:16.394Z,54.86
2023-05-10T02:02:13.354Z,54.47
2023-05-10T02:03:07.377Z,54.81
2023-05-10T02:04:02.309Z,54.78
2023-05-10T02:04:43.274Z,54.53
2023-05-10T02:05:24.447Z,54.59
2023-05-10T02:06:05.245Z,54.56
2023-05-10T02:06:46.316Z,54.36
2023-05-10T02:07:27.239Z,54.31
2023-05-10T02:08:08.336Z,54.39
2023-05-10T02:08:49.267Z,54.55
2023-05-10T02:09:31.623Z,54.54
2023-05-10T02:10:15.466Z,54.49
2023-05-10T02:11:01.368Z,54.82
2023-05-10T02:11:41.239Z,54.76
2023-05-10T02:12:21.339Z,54.73
2023-05-10T02:13:02.292Z,54.97
2023-05-10T02:13:44.572Z,54.80
2023-05-10T02:14:25.250Z,54.74
2023-05-10T02:15:07.428Z,54.55
2023-05-10T02:15:48.270Z,54.59
2023-05-10T02:16:32.444Z,54.95
2023-05-10T02:17:14.259Z,54.96
2023-05-10T02:17:54.405Z,54.96
2023-05-10T02:18:35.253Z,55.05
2023-05-10T02:19:16.443Z,54.88
2023-05-10T02:19:57.225Z,54.78
2023-05-10T02:20:39.321Z,55.42
2023-05-10T02:21:20.276Z,55.33
2023-05-10T02:22:00.428Z,54.99
2023-05-10T02:22:41.243Z,55.26
2023-05-10T02:23:22.339Z,55.15
2023-05-10T02:24:03.265Z,55.48
2023-05-10T02:24:44.328Z,55.64
2023-05-10T02:25:27.253Z,55.77
2023-05-10T02:26:08.358Z,56.08
2023-05-10T02:26:49.243Z,55.44
2023-05-10T02:27:31.320Z,55.75
2023-05-10T02:28:14.249Z,55.60
2023-05-10T02:28:55.786Z,55.74
2023-05-10T02:29:36.343Z,55.48
2023-05-10T02:30:18.490Z,56.20
2023-05-10T02:31:00.232Z,55.81
2023-05-10T02:31:44.388Z,56.03
2023-05-10T02:32:25.287Z,55.66
2023-05-10T02:33:05.367Z,55.57
2023-05-10T02:33:48.215Z,55.75
2023-05-10T02:34:30.415Z,55.59
2023-05-10T02:35:12.223Z,55.87
2023-05-10T02:35:53.372Z,55.70
2023-05-10T02:36:35.281Z,55.97
2023-05-10T02:37:15.298Z,55.82
2023-05-10T02:37:56.274Z,55.96
2023-05-10T02:38:36.315Z,55.88
2023-05-10T02:39:20.225Z,55.49
2023-05-10T02:40:04.464Z,55.89
2023-05-10T02:40:45.211Z,56.25
2023-05-10T02:41:27.335Z,56.21
2023-05-10T02:42:09.238Z,55.68
2023-05-10T02:42:50.840Z,56.38
2023-05-10T02:43:32.246Z,56.05
2023-05-10T02:44:14.307Z,56.09
2023-05-10T02:44:58.211Z,56.26
2023-05-10T02:45:39.898Z,56.15
2023-05-10T02:46:20.242Z,56.29
2023-05-10T02:47:00.918Z,56.11
2023-05-10T02:47:42.262Z,56.31
2023-05-10T02:48:23.312Z,56.38
2023-05-10T02:49:03.247Z,56.42
2023-05-10T02:49:43.350Z,56.72
2023-05-10T02:50:23.217Z,56.32
2023-05-10T02:51:13.439Z,56.41
2023-05-10T02:51:59.198Z,56.91
2023-05-10T02:52:55.234Z,56.83
2023-05-10T02:53:41.212Z,56.93
2023-05-10T02:54:28.257Z,56.83
2023-05-10T02:55:10.320Z,56.90
2023-05-10T02:55:55.222Z,56.92
2023-05-10T02:56:42.308Z,56.70
2023-05-10T02:57:26.215Z,57.25
2023-05-10T02:58:09.291Z,56.89
2023-05-10T02:58:49.227Z,56.86
2023-05-10T02:59:36.272Z,56.89
2023-05-10T03:00:10.772Z,56.76
2023-05-10T03:00:59.384Z,56.78
2023-05-10T03:01:33.338Z,57.12
2023-05-10T03:02:21.262Z,56.50
2023-05-10T03:02:55.569Z,56.87
2023-05-10T03:03:42.208Z,57.20
2023-05-10T03:04:16.154Z,56.97
2023-05-10T03:04:57.325Z,57.22
2023-05-10T03:05:32.454Z,57.05
2023-05-10T03:06:06.182Z,57.30
2023-05-10T03:06:47.202Z,57.25
2023-05-10T03:07:22.297Z,57.10
2023-05-10T03:07:56.540Z,56.93
2023-05-10T03:08:37.221Z,56.80
2023-05-10T03:09:12.106Z,56.97
2023-05-10T03:09:46.237Z,56.96
2023-05-10T03:10:27.250Z,56.39
2023-05-10T03:11:28.471Z,56.80
2023-05-10T03:12:47.139Z,56.86
2023-05-10T03:13:44.241Z,56.82
2023-05-10T03:14:31.344Z,57.07
2023-05-10T03:15:13.148Z,57.19
2023-05-10T03:16:15.248Z,56.87
2023-05-10T03:16:54.313Z,57.01
2023-05-10T03:17:58.186Z,56.72
2023-05-10T03:18:51.192Z,57.13
2023-05-10T03:19:44.277Z,56.99
2023-05-10T03:20:39.216Z,57.19
2023-05-10T03:21:23.221Z,56.96
2023-05-10T03:22:23.219Z,57.13
2023-05-10T03:23:35.196Z,57.18
2023-05-10T03:24:30.239Z,57.65
2023-05-10T03:25:25.179Z,57.65
2023-05-10T03:26:20.220Z,57.48
2023-05-10T03:27:04.231Z,57.58
2023-05-10T03:27:48.314Z,57.37
2023-05-10T03:28:29.200Z,57.62
2023-05-10T03:29:10.292Z,57.67
2023-05-10T03:29:52.186Z,57.40
2023-05-10T03:30:33.272Z,57.46
2023-05-10T03:31:14.207Z,57.75
2023-05-10T03:31:54.370Z,57.61
2023-05-10T03:32:35.236Z,57.29
2023-05-10T03:33:15.404Z,57.91
2023-05-10T03:33:57.183Z,57.45
2023-05-10T03:34:38.287Z,57.48
2023-05-10T03:35:21.182Z,57.42
2023-05-10T03:36:01.365Z,57.50
2023-05-10T03:36:42.167Z,57.56
2023-05-10T03:37:22.299Z,57.32
2023-05-10T03:38:03.187Z,57.73
2023-05-10T03:38:43.253Z,57.98
2023-05-10T03:39:24.162Z,57.65
2023-05-10T03:40:04.274Z,57.70
2023-05-10T03:40:45.187Z,57.85
2023-05-10T03:41:26.314Z,57.63
2023-05-10T03:42:07.263Z,57.63
2023-05-10T03:42:47.287Z,57.67
2023-05-10T03:43:27.197Z,58.02
2023-05-10T03:44:07.276Z,57.42
2023-05-10T03:44:48.186Z,57.71
2023-05-10T03:45:28.253Z,57.64
2023-05-10T03:46:13.197Z,58.03
2023-05-10T03:46:53.385Z,57.72
2023-05-10T03:47:33.179Z,57.91
2023-05-10T03:48:14.747Z,57.74
2023-05-10T03:48:55.193Z,57.73
2023-05-10T03:49:35.269Z,57.74
2023-05-10T03:50:16.277Z,57.51
2023-05-10T03:50:57.332Z,57.63
2023-05-10T03:51:38.150Z,58.04
2023-05-10T03:52:19.113Z,58.07
2023-05-10T03:53:00.190Z,57.90
2023-05-10T03:53:40.285Z,58.02
2023-05-10T03:54:21.208Z,57.86
2023-05-10T03:55:01.271Z,57.85
2023-05-10T03:55:43.188Z,57.97
2023-05-10T03:56:23.262Z,58.32
2023-05-10T03:57:03.184Z,58.28
2023-05-10T03:57:43.244Z,58.10
2023-05-10T03:58:24.152Z,58.67
2023-05-10T03:59:08.278Z,57.84
2023-05-10T03:59:48.237Z,57.65
2023-05-10T04:00:28.249Z,57.81
2023-05-10T04:01:08.143Z,58.00
2023-05-10T04:01:48.269Z,57.80
2023-05-10T04:02:29.221Z,58.10
2023-05-10T04:03:09.422Z,57.90
2023-05-10T04:03:49.212Z,58.03
2023-05-10T04:04:29.250Z,58.11
2023-05-10T04:05:10.173Z,58.15
2023-05-10T04:05:50.316Z,58.04
2023-05-10T04:06:31.227Z,58.17
2023-05-10T04:07:11.377Z,58.08
2023-05-10T04:07:52.183Z,58.39
2023-05-10T04:08:32.257Z,58.05
2023-05-10T04:09:13.150Z,58.27
2023-05-10T04:09:53.429Z,58.32
2023-05-10T04:10:34.160Z,58.43
2023-05-10T04:11:19.243Z,58.33
2023-05-10T04:11:59.155Z,58.44
2023-05-10T04:12:39.233Z,58.51
2023-05-10T04:13:19.230Z,58.25
2023-05-10T04:13:59.237Z,58.12
2023-05-10T04:14:40.147Z,58.46
2023-05-10T04:15:20.403Z,58.40
2023-05-10T04:16:00.179Z,58.68
2023-05-10T04:16:40.333Z,58.67
2023-05-10T04:17:20.186Z,58.17
2023-05-10T04:18:00.253Z,58.48
2023-05-10T04:18:41.146Z,58.44
2023-05-10T04:19:21.265Z,58.57
2023-05-10T04:20:02.145Z,58.37
2023-05-10T04:20:42.288Z,58.28
2023-05-10T04:21:23.148Z,58.90
2023-05-10T04:22:03.241Z,58.74
2023-05-10T04:22:44.135Z,58.71
2023-05-10T04:23:24.253Z,58.76
2023-05-10T04:24:04.121Z,58.18
2023-05-10T04:24:44.231Z,58.60
2023-05-10T04:25:24.128Z,58.36
2023-05-10T04:26:08.268Z,58.74
2023-05-10T04:26:49.161Z,59.05
2023-05-10T04:27:29.231Z,58.95
2023-05-10T04:28:09.141Z,58.75
2023-05-10T04:28:49.214Z,58.60
2023-05-10T04:29:29.150Z,58.45
2023-05-10T04:30:10.503Z,58.70
2023-05-10T04:30:51.164Z,58.68
2023-05-10T04:31:31.343Z,59.20
2023-05-10T04:32:12.173Z,58.79
2023-05-10T04:32:52.308Z,58.93
2023-05-10T04:33:33.181Z,59.03
2023-05-10T04:34:13.260Z,58.83
2023-05-10T04:34:54.131Z,59.15
2023-05-10T04:35:35.087Z,58.94
2023-05-10T04:36:16.124Z,59.11
2023-05-10T04:36:56.539Z,59.40
2023-05-10T04:37:36.164Z,59.22
2023-05-10T04:38:16.266Z,59.04
2023-05-10T04:38:57.174Z,59.25
2023-05-10T04:39:37.338Z,59.22
2023-05-10T04:40:18.420Z,58.81
2023-05-10T04:40:59.248Z,58.62
2023-05-10T04:41:39.211Z,58.39
2023-05-10T04:42:19.242Z,58.79
2023-05-10T04:43:00.399Z,58.96
2023-05-10T04:43:40.203Z,59.33
2023-05-10T04:44:20.146Z,59.11
2023-05-10T04:45:00.252Z,58.90
2023-05-10T04:45:41.155Z,58.85
2023-05-10T04:46:21.308Z,58.93
2023-05-10T04:47:04.169Z,59.69
2023-05-10T04:47:44.274Z,59.52
2023-05-10T04:48:24.142Z,59.32
2023-05-10T04:49:04.405Z,59.52
2023-05-10T04:49:44.153Z,59.18
2023-05-10T04:50:24.183Z,59.21
2023-05-10T04:51:05.205Z,59.33
2023-05-10T04:51:45.258Z,59.12
2023-05-10T04:52:25.126Z,59.28
2023-05-10T04:53:05.272Z,59.35
2023-05-10T04:53:54.183Z,59.15
2023-05-10T04:54:42.237Z,59.08
2023-05-10T04:55:22.107Z,59.27
2023-05-10T04:56:02.261Z,59.14
2023-05-10T04:56:42.215Z,59.74
2023-05-10T04:57:22.299Z,59.54
2023-05-10T04:58:04.159Z,59.24
2023-05-10T04:58:45.482Z,59.13
2023-05-10T04:59:25.173Z,59.12
2023-05-10T05:00:05.337Z,59.12
2023-05-10T05:00:46.139Z,59.17
2023-05-10T05:01:26.271Z,59.09
2023-05-10T05:02:07.203Z,59.35
2023-05-10T05:02:51.304Z,59.83
2023-05-10T05:03:31.162Z,59.56
2023-05-10T05:04:11.198Z,59.35
2023-05-10T05:04:52.101Z,60.30
2023-05-10T05:05:32.206Z,59.88
2023-05-10T05:06:13.130Z,59.97
2023-05-10T05:06:53.989Z,59.55
2023-05-10T05:07:35.117Z,59.61
2023-05-10T05:08:15.278Z,59.47
2023-05-10T05:08:57.105Z,59.50
2023-05-10T05:09:38.204Z,59.36
2023-05-10T05:10:19.366Z,59.40
2023-05-10T05:11:00.554Z,59.16
2023-05-10T05:11:41.121Z,59.19
2023-05-10T05:12:21.216Z,59.33
2023-05-10T05:13:01.120Z,59.22
2023-05-10T05:13:41.422Z,59.46
2023-05-10T05:14:22.112Z,59.19
2023-05-10T05:15:02.188Z,59.57
2023-05-10T05:15:43.164Z,59.35
2023-05-10T05:16:23.251Z,59.03
2023-05-10T05:17:04.114Z,59.07
2023-05-10T05:17:44.234Z,59.29
2023-05-10T05:18:25.159Z,59.20
2023-05-10T05:19:05.246Z,59.25
2023-05-10T05:19:46.139Z,59.75
2023-05-10T05:20:26.294Z,59.39
2023-05-10T05:21:07.102Z,59.37
2023-05-10T05:21:48.187Z,59.34
2023-05-10T05:22:35.121Z,59.22
2023-05-10T05:23:15.204Z,59.42
2023-05-10T05:23:56.121Z,59.20
2023-05-10T05:24:36.748Z,59.10
2023-05-10T05:25:19.117Z,59.43
2023-05-10T05:26:00.237Z,59.31
2023-05-10T05:26:41.114Z,58.97
2023-05-10T05:27:25.309Z,58.82
2023-05-10T05:28:06.092Z,59.21
2023-05-10T05:28:46.235Z,59.19
2023-05-10T05:29:26.109Z,59.14
2023-05-10T05:30:07.440Z,59.23
2023-05-10T05:30:48.087Z,59.04
2023-05-10T05:31:28.246Z,59.28
2023-05-10T05:32:08.274Z,59.38
2023-05-10T05:32:48.293Z,59.57
2023-05-10T05:33:29.090Z,59.08
2023-05-10T05:34:09.277Z,59.21
2023-05-10T05:34:51.102Z,59.15
2023-05-10T05:35:31.196Z,59.13
2023-05-10T05:36:13.068Z,59.36
2023-05-10T05:36:53.178Z,58.95
2023-05-10T05:37:34.119Z,59.05
2023-05-10T05:38:14.168Z,59.14
2023-05-10T05:38:55.121Z,59.13
2023-05-10T05:39:35.446Z,59.35
2023-05-10T05:40:16.091Z,59.14
2023-05-10T05:40:56.220Z,59.06
2023-05-10T05:41:36.069Z,59.18
2023-05-10T05:42:19.672Z,59.02
2023-05-10T05:43:01.144Z,59.09
2023-05-10T05:43:41.207Z,59.04
2023-05-10T05:44:21.075Z,58.94
2023-05-10T05:45:01.173Z,59.24
2023-05-10T05:45:42.116Z,59.32
2023-05-10T05:46:22.236Z,59.37
2023-05-10T05:47:03.073Z,59.54
2023-05-10T05:47:43.252Z,59.46
2023-05-10T05:48:23.072Z,59.18
2023-05-10T05:49:03.244Z,59.32
2023-05-10T05:49:43.087Z,59.39
2023-05-10T05:50:23.175Z,59.52
2023-05-10T05:51:07.397Z,59.10
2023-05-10T05:51:50.519Z,59.22
2023-05-10T05:52:30.080Z,59.49
2023-05-10T05:53:10.162Z,59.29
2023-05-10T05:53:50.114Z,58.97
2023-05-10T05:54:30.133Z,59.08
2023-05-10T05:55:11.054Z,59.73
2023-05-10T05:56:06.245Z,59.58
2023-05-10T05:56:47.093Z,59.35
2023-05-10T05:57:27.661Z,59.39
2023-05-10T05:58:08.086Z,59.38
2023-05-10T05:58:48.574Z,59.50
2023-05-10T05:59:29.075Z,59.62
2023-05-10T06:00:09.161Z,59.42
2023-05-10T06:00:50.055Z,59.38
2023-05-10T06:02:02.170Z,59.23
2023-05-10T06:03:04.246Z,58.93
2023-05-10T06:03:58.246Z,58.97
2023-05-10T06:04:45.086Z,58.79
2023-05-10T06:05:19.269Z,58.82
2023-05-10T06:06:06.064Z,59.06
2023-05-10T06:06:40.150Z,58.83
2023-05-10T06:07:28.064Z,58.89
2023-05-10T06:08:02.224Z,58.65
2023-05-10T06:08:49.064Z,58.96
2023-05-10T06:09:25.458Z,58.73
2023-05-10T06:10:05.130Z,58.78
2023-05-10T06:10:46.275Z,59.15
2023-05-10T06:11:26.048Z,58.94
2023-05-10T06:12:06.138Z,58.81
2023-05-10T06:12:47.060Z,58.83
2023-05-10T06:13:33.285Z,58.85
2023-05-10T06:14:15.061Z,58.77
2023-05-10T06:14:55.145Z,58.99
2023-05-10T06:15:36.137Z,58.97
2023-05-10T06:16:17.164Z,58.81
2023-05-10T06:16:57.201Z,58.88
2023-05-10T06:17:37.202Z,58.76
2023-05-10T06:18:17.057Z,59.21
2023-05-10T06:18:57.382Z,59.12
2023-05-10T06:19:37.051Z,58.91
2023-05-10T06:20:31.046Z,59.07
2023-05-10T06:21:12.058Z,59.00
2023-05-10T06:21:53.807Z,59.05
2023-05-10T06:22:34.067Z,58.83
2023-05-10T06:23:14.150Z,58.74
2023-05-10T06:23:54.045Z,59.04
2023-05-10T06:24:34.126Z,59.01
2023-05-10T06:25:16.296Z,58.88
2023-05-10T06:25:57.141Z,58.70
2023-05-10T06:26:37.078Z,58.62
2023-05-10T06:27:17.151Z,58.79
2023-05-10T06:27:58.092Z,58.48
2023-05-10T06:28:40.092Z,58.59
2023-05-10T06:29:20.077Z,58.52
2023-05-10T06:30:11.934Z,58.58
2023-05-10T06:30:53.103Z,58.54
2023-05-10T06:31:33.208Z,58.51
2023-05-10T06:32:14.058Z,58.44
2023-05-10T06:32:54.597Z,58.41
2023-05-10T06:33:35.022Z,58.51
2023-05-10T06:34:15.124Z,58.18
2023-05-10T06:34:55.032Z,57.78
2023-05-10T06:35:36.176Z,58.09
2023-05-10T06:36:17.022Z,58.30
2023-05-10T06:36:57.168Z,58.22
2023-05-10T06:37:37.052Z,58.31
2023-05-10T06:38:17.129Z,58.50
2023-05-10T06:38:59.063Z,58.14
2023-05-10T06:39:39.346Z,58.51
2023-05-10T06:40:41.018Z,58.26
2023-05-10T06:41:35.029Z,58.42
2023-05-10T06:42:29.034Z,58.43
2023-05-10T06:43:09.039Z,58.37
2023-05-10T06:43:49.116Z,58.28
2023-05-10T06:44:30.032Z,58.56
2023-05-10T06:45:10.186Z,58.37
2023-05-10T06:45:50.030Z,58.30
2023-05-10T06:46:30.125Z,58.34
2023-05-10T06:47:09.997Z,58.21
2023-05-10T06:47:50.265Z,58.05
2023-05-10T06:48:31.059Z,58.26
2023-05-10T06:49:11.142Z,58.20
2023-05-10T06:49:52.034Z,57.94
2023-05-10T06:50:32.121Z,57.98
2023-05-10T06:51:12.041Z,58.06
2023-05-10T06:51:52.672Z,57.81
2023-05-10T06:52:34.016Z,57.76
2023-05-10T06:53:14.269Z,57.79
2023-05-10T06:53:55.052Z,57.59
2023-05-10T06:54:35.118Z,57.89
2023-05-10T06:55:16.320Z,57.75
2023-05-10T06:56:11.039Z,57.62
2023-05-10T06:57:10.796Z,57.64
2023-05-10T06:58:10.017Z,56.97
2023-05-10T06:59:04.104Z,57.33
2023-05-10T06:59:57.992Z,57.42
2023-05-10T07:00:53.067Z,57.62
2023-05-10T07:01:47.101Z,57.28
2023-05-10T07:02:41.054Z,57.02
2023-05-10T07:03:35.006Z,56.84
2023-05-10T07:04:22.037Z,56.83
2023-05-10T07:04:56.201Z,56.90
2023-05-10T07:05:44.040Z,56.69
2023-05-10T07:06:29.532Z,56.68
2023-05-10T07:07:20.999Z,56.95
2023-05-10T07:07:55.070Z,56.63
2023-05-10T07:08:42.032Z,57.09
2023-05-10T07:09:16.674Z,57.11
2023-05-10T07:09:59.031Z,56.97
2023-05-10T07:10:39.102Z,57.08
2023-05-10T07:11:20.013Z,56.81
2023-05-10T07:12:00.169Z,57.01
2023-05-10T07:12:41.051Z,56.87
2023-05-10T07:13:21.250Z,56.99
2023-05-10T07:14:00.995Z,56.83
2023-05-10T07:14:41.139Z,56.58
2023-05-10T07:15:21.095Z,56.65
2023-05-10T07:16:01.504Z,56.76
2023-05-10T07:16:43.071Z,56.58
2023-05-10T07:17:23.186Z,56.47
2023-05-10T07:18:03.188Z,56.25
2023-05-10T07:18:43.127Z,55.82
2023-05-10T07:19:23.012Z,55.97
2023-05-10T07:20:04.535Z,56.08
2023-05-10T07:20:46.018Z,55.74
2023-05-10T07:21:29.385Z,55.91
2023-05-10T07:22:11.018Z,56.03
2023-05-10T07:22:51.220Z,55.82
2023-05-10T07:23:31.059Z,55.80
2023-05-10T07:24:11.292Z,55.85
2023-05-10T07:24:52.020Z,55.94
2023-05-10T07:25:32.148Z,55.68
2023-05-10T07:26:13.018Z,56.06
2023-05-10T07:26:53.056Z,55.91
2023-05-10T07:27:32.968Z,55.97
2023-05-10T07:28:13.073Z,55.85
2023-05-10T07:28:53.982Z,55.93
2023-05-10T07:29:34.167Z,55.93
2023-05-10T07:30:14.983Z,55.51
2023-05-10T07:30:55.124Z,55.25
2023-05-10T07:31:35.011Z,55.58
2023-05-10T07:32:15.117Z,55.57
2023-05-10T07:32:56.035Z,55.29
2023-05-10T07:33:36.289Z,55.10
2023-05-10T07:34:17.032Z,55.04
2023-05-10T07:34:57.080Z,55.19
2023-05-10T07:35:37.062Z,55.11
2023-05-10T07:36:17.074Z,54.98
2023-05-10T07:36:59.016Z,55.24
2023-05-10T07:37:39.073Z,55.03
2023-05-10T07:38:19.985Z,55.14
2023-05-10T07:39:00.108Z,55.17
2023-05-10T07:39:39.995Z,54.90
2023-05-10T07:40:20.047Z,54.82
2023-05-10T07:41:01.041Z,54.74
2023-05-10T07:41:41.160Z,54.78
2023-05-10T07:42:21.994Z,54.56
2023-05-10T07:43:02.636Z,54.53
2023-05-10T07:43:42.971Z,54.32
2023-05-10T07:44:23.136Z,54.64
2023-05-10T07:45:03.988Z,54.55
2023-05-10T07:45:44.288Z,54.67
2023-05-10T07:46:24.086Z,54.63
2023-05-10T07:47:04.094Z,54.67
2023-05-10T07:47:44.009Z,54.80
2023-05-10T07:48:24.060Z,54.77
2023-05-10T07:49:05.017Z,54.54
2023-05-10T07:49:45.082Z,54.46
2023-05-10T07:50:25.979Z,54.53
2023-05-10T07:51:07.397Z,54.14
2023-05-10T07:51:47.964Z,54.29
2023-05-10T07:52:28.096Z,54.42
2023-05-10T07:53:08.969Z,54.30
2023-05-10T07:53:50.111Z,54.43
2023-05-10T07:54:30.998Z,54.38
2023-05-10T07:55:12.092Z,54.52
2023-05-10T07:55:56.950Z,54.56
2023-05-10T07:56:40.788Z,54.71
2023-05-10T07:57:22.964Z,55.05
2023-05-10T07:58:03.202Z,54.64
2023-05-10T07:58:42.977Z,54.37
2023-05-10T07:59:25.045Z,54.50
2023-05-10T08:00:04.954Z,54.10
2023-05-10T08:00:45.064Z,54.21
2023-05-10T08:01:25.968Z,54.40
2023-05-10T08:02:06.149Z,54.27
2023-05-10T08:02:47.018Z,54.21
2023-05-10T08:03:27.152Z,54.63
2023-05-10T08:04:08.037Z,54.28
2023-05-10T08:04:48.050Z,54.06
2023-05-10T08:05:28.965Z,54.20
2023-05-10T08:06:09.104Z,53.82
2023-05-10T08:06:48.955Z,53.82
2023-05-10T08:07:29.203Z,53.92
2023-05-10T08:08:08.996Z,53.66
2023-05-10T08:08:53.169Z,53.64
2023-05-10T08:09:33.985Z,53.93
2023-05-10T08:10:16.069Z,53.70
2023-05-10T08:10:55.997Z,53.34
2023-05-10T08:11:36.368Z,53.74
2023-05-10T08:12:16.967Z,53.35
2023-05-10T08:12:57.124Z,53.19
2023-05-10T08:13:38.960Z,52.91
2023-05-10T08:14:19.188Z,52.65
2023-05-10T08:14:58.977Z,52.78
2023-05-10T08:15:39.080Z,52.98
2023-05-10T08:16:18.990Z,52.83
2023-05-10T08:16:59.026Z,53.09
2023-05-10T08:17:39.954Z,53.15
2023-05-10T08:18:22.045Z,53.29
2023-05-10T08:19:03.013Z,53.12
2023-05-10T08:19:43.025Z,53.04
2023-05-10T08:20:26.041Z,53.00
2023-05-10T08:21:06.048Z,52.90
2023-05-10T08:21:47.962Z,52.99
2023-05-10T08:22:28.342Z,53.04
2023-05-10T08:23:07.932Z,53.38
2023-05-10T08:23:48.038Z,53.27
2023-05-10T08:24:28.934Z,52.73
2023-05-10T08:25:09.195Z,52.79
2023-05-10T08:25:49.934Z,52.51
2023-05-10T08:26:30.043Z,52.24
2023-05-10T08:27:09.935Z,52.51
2023-05-10T08:27:50.068Z,52.06
2023-05-10T08:28:29.930Z,52.35
2023-05-10T08:29:10.049Z,51.87
2023-05-10T08:29:50.925Z,51.73
2023-05-10T08:30:31.017Z,51.97
2023-05-10T08:31:12.955Z,52.05
2023-05-10T08:31:53.218Z,51.97
2023-05-10T08:32:39.998Z,51.99
2023-05-10T08:33:14.085Z,51.81
2023-05-10T08:34:00.935Z,51.70
2023-05-10T08:34:35.077Z,51.86
2023-05-10T08:35:23.925Z,52.09
2023-05-10T08:35:58.085Z,52.02
2023-05-10T08:36:39.967Z,52.39
2023-05-10T08:37:20.014Z,51.83
2023-05-10T08:38:00.922Z,51.73
2023-05-10T08:38:40.988Z,51.30
2023-05-10T08:39:29.913Z,51.28
2023-05-10T08:40:12.061Z,51.41
2023-05-10T08:40:52.940Z,51.28
2023-05-10T08:41:33.044Z,51.37
2023-05-10T08:42:20.952Z,51.74
2023-05-10T08:43:09.735Z,51.46
2023-05-10T08:43:57.928Z,51.45
2023-05-10T08:44:33.739Z,51.45
2023-05-10T08:45:22.941Z,51.09
2023-05-10T08:45:57.740Z,51.33
2023-05-10T08:46:46.961Z,50.99
2023-05-10T08:47:20.720Z,50.75
2023-05-10T08:48:02.008Z,51.08
2023-05-10T08:48:37.224Z,51.14
2023-05-10T08:49:14.253Z,51.06
2023-05-10T08:49:58.895Z,51.27
2023-05-10T08:50:33.087Z,50.76
2023-05-10T08:51:07.352Z,51.18
2023-05-10T08:51:50.895Z,50.58
2023-05-10T08:52:24.996Z,50.12
2023-05-10T08:53:08.934Z,50.26
2023-05-10T08:53:50.074Z,50.03
2023-05-10T08:54:30.918Z,50.13
2023-05-10T08:55:11.988Z,49.65
2023-05-10T08:55:51.897Z,49.38
2023-05-10T08:56:32.132Z,49.48
2023-05-10T08:57:11.893Z,49.76
2023-05-10T08:57:53.009Z,49.79
2023-05-10T08:58:32.917Z,48.99
2023-05-10T08:59:14.230Z,48.54
2023-05-10T08:59:53.912Z,48.39
2023-05-10T09:00:35.038Z,48.26
2023-05-10T09:01:15.996Z,48.16
2023-05-10T09:01:58.015Z,48.15
2023-05-10T09:02:37.956Z,48.30
2023-05-10T09:03:18.078Z,48.28
2023-05-10T09:03:58.990Z,48.65
2023-05-10T09:04:39.112Z,48.78
2023-05-10T09:05:20.244Z,48.94
2023-05-10T09:06:02.002Z,48.63
2023-05-10T09:06:41.951Z,48.76
2023-05-10T09:07:22.017Z,48.68
2023-05-10T09:08:01.959Z,48.60
2023-05-10T09:08:42.031Z,48.63
2023-05-10T09:09:23.925Z,48.88
2023-05-10T09:10:04.999Z,48.83
2023-05-10T09:10:46.925Z,48.60
2023-05-10T09:11:29.998Z,48.83